sensor_id;sensor_type;location;lat;lon;timestamp;temperature;humidity
65989;HTU21D;53592;51.402;6.054;2023-04-03T00:01:53;4.57;75.96
65989;HTU21D;53592;51.402;6.054;2023-04-03T00:04:19;4.54;76.17
65989;HTU21D;53592;51.402;6.054;2023-04-03T00:06:44;4.58;75.73
65989;HTU21D;53592;51.402;6.054;2023-04-03T00:09:10;4.56;75.34
65989;HTU21D;53592;51.402;6.054;2023-04-03T00:11:35;4.45;75.50
65989;HTU21D;53592;51.402;6.054;2023-04-03T00:14:01;4.38;75.78
65989;HTU21D;53592;51.402;6.054;2023-04-03T00:16:26;4.38;75.97
65989;HTU21D;53592;51.402;6.054;2023-04-03T00:18:52;4.41;75.63
65989;HTU21D;53592;51.402;6.054;2023-04-03T00:21:17;4.42;75.63
65989;HTU21D;53592;51.402;6.054;2023-04-03T00:23:43;4.46;75.25
65989;HTU21D;53592;51.402;6.054;2023-04-03T00:26:08;4.47;75.13
65989;HTU21D;53592;51.402;6.054;2023-04-03T00:28:33;4.46;75.10
65989;HTU21D;53592;51.402;6.054;2023-04-03T00:30:59;4.38;75.54
65989;HTU21D;53592;51.402;6.054;2023-04-03T00:33:25;4.33;75.87
65989;HTU21D;53592;51.402;6.054;2023-04-03T00:35:51;4.31;76.06
65989;HTU21D;53592;51.402;6.054;2023-04-03T00:38:17;4.28;76.10
65989;HTU21D;53592;51.402;6.054;2023-04-03T00:40:46;4.26;75.74
65989;HTU21D;53592;51.402;6.054;2023-04-03T00:43:14;4.24;75.68
65989;HTU21D;53592;51.402;6.054;2023-04-03T00:45:44;4.22;75.91
65989;HTU21D;53592;51.402;6.054;2023-04-03T00:48:22;4.22;75.64
65989;HTU21D;53592;51.402;6.054;2023-04-03T00:50:49;4.18;75.73
65989;HTU21D;53592;51.402;6.054;2023-04-03T00:53:25;4.18;75.76
65989;HTU21D;53592;51.402;6.054;2023-04-03T00:55:54;4.20;75.55
65989;HTU21D;53592;51.402;6.054;2023-04-03T00:58:27;4.19;75.58
65989;HTU21D;53592;51.402;6.054;2023-04-03T01:00:57;4.21;75.53
65989;HTU21D;53592;51.402;6.054;2023-04-03T01:03:24;4.21;75.35
65989;HTU21D;53592;51.402;6.054;2023-04-03T01:05:50;4.16;75.32
65989;HTU21D;53592;51.402;6.054;2023-04-03T01:08:16;4.06;75.55
65989;HTU21D;53592;51.402;6.054;2023-04-03T01:10:42;4.03;75.81
65989;HTU21D;53592;51.402;6.054;2023-04-03T01:13:20;3.95;75.95
65989;HTU21D;53592;51.402;6.054;2023-04-03T01:15:46;3.97;76.00
65989;HTU21D;53592;51.402;6.054;2023-04-03T01:18:11;3.93;76.10
65989;HTU21D;53592;51.402;6.054;2023-04-03T01:21:07;3.92;76.52
65989;HTU21D;53592;51.402;6.054;2023-04-03T01:26:25;4.00;76.27
65989;HTU21D;53592;51.402;6.054;2023-04-03T01:28:53;4.02;76.18
65989;HTU21D;53592;51.402;6.054;2023-04-03T01:31:30;4.03;76.20
65989;HTU21D;53592;51.402;6.054;2023-04-03T01:33:57;4.01;76.21
65989;HTU21D;53592;51.402;6.054;2023-04-03T01:36:28;4.04;76.17
65989;HTU21D;53592;51.402;6.054;2023-04-03T01:38:55;3.97;76.28
65989;HTU21D;53592;51.402;6.054;2023-04-03T01:41:22;3.93;76.48
65989;HTU21D;53592;51.402;6.054;2023-04-03T01:43:49;3.95;76.47
65989;HTU21D;53592;51.402;6.054;2023-04-03T01:46:16;3.93;76.75
65989;HTU21D;53592;51.402;6.054;2023-04-03T01:48:41;3.95;76.68
65989;HTU21D;53592;51.402;6.054;2023-04-03T01:51:07;3.95;76.70
65989;HTU21D;53592;51.402;6.054;2023-04-03T01:53:33;3.99;76.39
65989;HTU21D;53592;51.402;6.054;2023-04-03T01:55:59;3.95;76.48
65989;HTU21D;53592;51.402;6.054;2023-04-03T01:58:24;3.93;76.30
65989;HTU21D;53592;51.402;6.054;2023-04-03T02:00:51;3.89;76.58
65989;HTU21D;53592;51.402;6.054;2023-04-03T02:03:17;3.89;76.60
65989;HTU21D;53592;51.402;6.054;2023-04-03T02:05:43;3.90;76.62
65989;HTU21D;53592;51.402;6.054;2023-04-03T02:08:08;3.86;76.70
65989;HTU21D;53592;51.402;6.054;2023-04-03T02:10:34;3.84;76.81
65989;HTU21D;53592;51.402;6.054;2023-04-03T02:12:59;3.85;76.80
65989;HTU21D;53592;51.402;6.054;2023-04-03T02:15:25;3.78;76.78
65989;HTU21D;53592;51.402;6.054;2023-04-03T02:17:50;3.72;77.01
65989;HTU21D;53592;51.402;6.054;2023-04-03T02:20:16;3.71;77.08
65989;HTU21D;53592;51.402;6.054;2023-04-03T02:22:42;3.70;77.23
65989;HTU21D;53592;51.402;6.054;2023-04-03T02:25:07;3.65;77.33
65989;HTU21D;53592;51.402;6.054;2023-04-03T02:27:33;3.63;77.41
65989;HTU21D;53592;51.402;6.054;2023-04-03T02:29:58;3.56;77.55
65989;HTU21D;53592;51.402;6.054;2023-04-03T02:32:24;3.52;78.01
65989;HTU21D;53592;51.402;6.054;2023-04-03T02:34:50;3.44;78.11
65989;HTU21D;53592;51.402;6.054;2023-04-03T02:37:15;3.41;78.38
65989;HTU21D;53592;51.402;6.054;2023-04-03T02:39:41;3.38;78.54
65989;HTU21D;53592;51.402;6.054;2023-04-03T02:42:06;3.38;78.45
65989;HTU21D;53592;51.402;6.054;2023-04-03T02:44:32;3.32;78.61
65989;HTU21D;53592;51.402;6.054;2023-04-03T02:46:58;3.33;78.81
65989;HTU21D;53592;51.402;6.054;2023-04-03T02:49:23;3.33;78.64
65989;HTU21D;53592;51.402;6.054;2023-04-03T02:51:49;3.36;78.43
65989;HTU21D;53592;51.402;6.054;2023-04-03T02:54:14;3.36;78.48
65989;HTU21D;53592;51.402;6.054;2023-04-03T02:56:40;3.34;78.28
65989;HTU21D;53592;51.402;6.054;2023-04-03T02:59:05;3.33;78.41
65989;HTU21D;53592;51.402;6.054;2023-04-03T03:01:31;3.32;78.28
65989;HTU21D;53592;51.402;6.054;2023-04-03T03:03:59;3.34;78.30
65989;HTU21D;53592;51.402;6.054;2023-04-03T03:06:25;3.35;78.13
65989;HTU21D;53592;51.402;6.054;2023-04-03T03:08:51;3.33;78.37
65989;HTU21D;53592;51.402;6.054;2023-04-03T03:11:16;3.39;78.23
65989;HTU21D;53592;51.402;6.054;2023-04-03T03:13:42;3.39;78.14
65989;HTU21D;53592;51.402;6.054;2023-04-03T03:16:08;3.38;78.05
65989;HTU21D;53592;51.402;6.054;2023-04-03T03:18:34;3.34;78.03
65989;HTU21D;53592;51.402;6.054;2023-04-03T03:21:01;3.34;78.18
65989;HTU21D;53592;51.402;6.054;2023-04-03T03:23:29;3.36;78.13
65989;HTU21D;53592;51.402;6.054;2023-04-03T03:26:01;3.38;78.00
65989;HTU21D;53592;51.402;6.054;2023-04-03T03:28:27;3.36;77.94
65989;HTU21D;53592;51.402;6.054;2023-04-03T03:30:52;3.38;77.92
65989;HTU21D;53592;51.402;6.054;2023-04-03T03:33:18;3.38;77.98
65989;HTU21D;53592;51.402;6.054;2023-04-03T03:35:44;3.40;77.79
65989;HTU21D;53592;51.402;6.054;2023-04-03T03:38:10;3.39;77.56
65989;HTU21D;53592;51.402;6.054;2023-04-03T03:40:35;3.38;77.61
65989;HTU21D;53592;51.402;6.054;2023-04-03T03:43:01;3.33;77.58
65989;HTU21D;53592;51.402;6.054;2023-04-03T03:45:27;3.26;77.58
65989;HTU21D;53592;51.402;6.054;2023-04-03T03:47:52;3.24;77.78
65989;HTU21D;53592;51.402;6.054;2023-04-03T03:50:18;3.23;77.72
65989;HTU21D;53592;51.402;6.054;2023-04-03T03:52:43;3.18;77.88
65989;HTU21D;53592;51.402;6.054;2023-04-03T03:55:10;3.18;77.94
65989;HTU21D;53592;51.402;6.054;2023-04-03T03:57:35;3.18;78.04
65989;HTU21D;53592;51.402;6.054;2023-04-03T04:00:01;3.18;77.83
65989;HTU21D;53592;51.402;6.054;2023-04-03T04:02:26;3.16;77.92
65989;HTU21D;53592;51.402;6.054;2023-04-03T04:04:52;3.15;77.92
65989;HTU21D;53592;51.402;6.054;2023-04-03T04:07:17;3.13;77.83
65989;HTU21D;53592;51.402;6.054;2023-04-03T04:09:43;3.10;77.88
65989;HTU21D;53592;51.402;6.054;2023-04-03T04:12:08;3.11;78.01
65989;HTU21D;53592;51.402;6.054;2023-04-03T04:14:34;3.16;78.04
65989;HTU21D;53592;51.402;6.054;2023-04-03T04:16:59;3.21;77.76
65989;HTU21D;53592;51.402;6.054;2023-04-03T04:19:25;3.25;77.60
65989;HTU21D;53592;51.402;6.054;2023-04-03T04:21:50;3.26;77.34
65989;HTU21D;53592;51.402;6.054;2023-04-03T04:24:16;3.25;77.33
65989;HTU21D;53592;51.402;6.054;2023-04-03T04:26:41;3.18;77.16
65989;HTU21D;53592;51.402;6.054;2023-04-03T04:29:09;3.10;77.28
65989;HTU21D;53592;51.402;6.054;2023-04-03T04:31:35;3.03;77.53
65989;HTU21D;53592;51.402;6.054;2023-04-03T04:34:01;3.00;77.62
65989;HTU21D;53592;51.402;6.054;2023-04-03T04:36:26;2.93;77.72
65989;HTU21D;53592;51.402;6.054;2023-04-03T04:38:52;2.86;77.85
65989;HTU21D;53592;51.402;6.054;2023-04-03T04:41:21;2.81;78.05
65989;HTU21D;53592;51.402;6.054;2023-04-03T04:43:51;2.76;78.18
65989;HTU21D;53592;51.402;6.054;2023-04-03T04:46:17;2.72;78.37
65989;HTU21D;53592;51.402;6.054;2023-04-03T04:48:43;2.71;78.35
65989;HTU21D;53592;51.402;6.054;2023-04-03T04:51:09;2.65;78.47
65989;HTU21D;53592;51.402;6.054;2023-04-03T04:53:35;2.61;78.68
65989;HTU21D;53592;51.402;6.054;2023-04-03T04:56:01;2.64;78.92
65989;HTU21D;53592;51.402;6.054;2023-04-03T04:58:26;2.66;78.79
65989;HTU21D;53592;51.402;6.054;2023-04-03T05:01:04;2.67;78.62
65989;HTU21D;53592;51.402;6.054;2023-04-03T05:03:30;2.61;78.71
65989;HTU21D;53592;51.402;6.054;2023-04-03T05:05:55;2.60;78.74
65989;HTU21D;53592;51.402;6.054;2023-04-03T05:08:21;2.58;78.79
65989;HTU21D;53592;51.402;6.054;2023-04-03T05:10:47;2.59;78.73
65989;HTU21D;53592;51.402;6.054;2023-04-03T05:13:13;2.57;78.75
65989;HTU21D;53592;51.402;6.054;2023-04-03T05:15:38;2.59;78.81
65989;HTU21D;53592;51.402;6.054;2023-04-03T05:18:06;2.61;78.77
65989;HTU21D;53592;51.402;6.054;2023-04-03T05:20:32;2.60;78.58
65989;HTU21D;53592;51.402;6.054;2023-04-03T05:23:36;2.64;78.78
65989;HTU21D;53592;51.402;6.054;2023-04-03T05:29:33;2.68;78.49
65989;HTU21D;53592;51.402;6.054;2023-04-03T05:32:17;2.68;78.37
65989;HTU21D;53592;51.402;6.054;2023-04-03T05:38:22;2.71;78.43
65989;HTU21D;53592;51.402;6.054;2023-04-03T05:41:11;2.73;78.40
65989;HTU21D;53592;51.402;6.054;2023-04-03T05:43:52;2.75;78.39
65989;HTU21D;53592;51.402;6.054;2023-04-03T05:46:45;2.75;78.37
65989;HTU21D;53592;51.402;6.054;2023-04-03T05:49:13;2.78;78.40
65989;HTU21D;53592;51.402;6.054;2023-04-03T05:51:39;2.78;78.30
65989;HTU21D;53592;51.402;6.054;2023-04-03T05:57:43;2.81;78.30
65989;HTU21D;53592;51.402;6.054;2023-04-03T06:00:12;2.82;78.37
65989;HTU21D;53592;51.402;6.054;2023-04-03T06:02:39;2.86;78.75
65989;HTU21D;53592;51.402;6.054;2023-04-03T06:05:05;2.90;79.21
65989;HTU21D;53592;51.402;6.054;2023-04-03T06:07:32;3.03;79.24
65989;HTU21D;53592;51.402;6.054;2023-04-03T06:09:57;3.18;79.07
65989;HTU21D;53592;51.402;6.054;2023-04-03T06:12:23;3.31;79.44
65989;HTU21D;53592;51.402;6.054;2023-04-03T06:14:49;3.47;79.19
65989;HTU21D;53592;51.402;6.054;2023-04-03T06:17:15;3.64;78.71
65989;HTU21D;53592;51.402;6.054;2023-04-03T06:19:43;3.82;78.72
65989;HTU21D;53592;51.402;6.054;2023-04-03T06:22:09;4.01;78.13
65989;HTU21D;53592;51.402;6.054;2023-04-03T06:24:34;4.26;76.80
65989;HTU21D;53592;51.402;6.054;2023-04-03T06:27:00;4.37;76.46
65989;HTU21D;53592;51.402;6.054;2023-04-03T06:29:26;4.59;76.28
65989;HTU21D;53592;51.402;6.054;2023-04-03T06:31:51;4.82;75.37
65989;HTU21D;53592;51.402;6.054;2023-04-03T06:34:18;4.98;74.22
65989;HTU21D;53592;51.402;6.054;2023-04-03T06:36:44;5.04;73.39
65989;HTU21D;53592;51.402;6.054;2023-04-03T06:39:21;5.15;73.38
65989;HTU21D;53592;51.402;6.054;2023-04-03T06:41:50;5.37;72.85
65989;HTU21D;53592;51.402;6.054;2023-04-03T06:44:16;5.53;71.82
65989;HTU21D;53592;51.402;6.054;2023-04-03T06:46:43;5.69;71.09
65989;HTU21D;53592;51.402;6.054;2023-04-03T06:49:09;5.90;70.01
65989;HTU21D;53592;51.402;6.054;2023-04-03T06:51:35;6.05;68.86
65989;HTU21D;53592;51.402;6.054;2023-04-03T06:54:03;6.13;68.19
65989;HTU21D;53592;51.402;6.054;2023-04-03T06:56:29;6.30;68.91
65989;HTU21D;53592;51.402;6.054;2023-04-03T06:58:55;6.52;67.62
65989;HTU21D;53592;51.402;6.054;2023-04-03T07:01:25;6.65;65.55
65989;HTU21D;53592;51.402;6.054;2023-04-03T07:03:51;6.80;65.62
65989;HTU21D;53592;51.402;6.054;2023-04-03T07:06:18;6.89;65.37
65989;HTU21D;53592;51.402;6.054;2023-04-03T07:08:45;7.03;66.24
65989;HTU21D;53592;51.402;6.054;2023-04-03T07:11:12;7.19;64.39
65989;HTU21D;53592;51.402;6.054;2023-04-03T07:13:38;7.27;63.59
65989;HTU21D;53592;51.402;6.054;2023-04-03T07:16:04;7.41;63.38
65989;HTU21D;53592;51.402;6.054;2023-04-03T07:18:31;7.61;62.86
65989;HTU21D;53592;51.402;6.054;2023-04-03T07:20:57;7.67;62.02
65989;HTU21D;53592;51.402;6.054;2023-04-03T07:23:23;7.83;62.46
65989;HTU21D;53592;51.402;6.054;2023-04-03T07:25:50;8.02;62.33
65989;HTU21D;53592;51.402;6.054;2023-04-03T07:28:17;8.24;61.54
65989;HTU21D;53592;51.402;6.054;2023-04-03T07:30:44;8.48;60.92
65989;HTU21D;53592;51.402;6.054;2023-04-03T07:33:12;8.66;60.27
65989;HTU21D;53592;51.402;6.054;2023-04-03T07:35:39;8.81;59.06
65989;HTU21D;53592;51.402;6.054;2023-04-03T07:38:05;8.83;58.31
65989;HTU21D;53592;51.402;6.054;2023-04-03T07:40:31;8.73;58.48
65989;HTU21D;53592;51.402;6.054;2023-04-03T07:42:56;8.81;57.87
65989;HTU21D;53592;51.402;6.054;2023-04-03T07:45:22;8.80;58.39
65989;HTU21D;53592;51.402;6.054;2023-04-03T07:47:48;8.98;58.99
65989;HTU21D;53592;51.402;6.054;2023-04-03T07:50:14;9.26;58.34
65989;HTU21D;53592;51.402;6.054;2023-04-03T07:52:39;9.38;57.01
65989;HTU21D;53592;51.402;6.054;2023-04-03T07:55:06;9.44;56.00
65989;HTU21D;53592;51.402;6.054;2023-04-03T07:57:32;9.47;56.49
65989;HTU21D;53592;51.402;6.054;2023-04-03T07:59:57;9.60;55.75
65989;HTU21D;53592;51.402;6.054;2023-04-03T08:02:23;9.57;56.08
65989;HTU21D;53592;51.402;6.054;2023-04-03T08:04:48;9.83;55.21
65989;HTU21D;53592;51.402;6.054;2023-04-03T08:07:14;9.92;53.64
65989;HTU21D;53592;51.402;6.054;2023-04-03T08:09:39;9.70;54.77
65989;HTU21D;53592;51.402;6.054;2023-04-03T08:12:05;9.75;54.71
65989;HTU21D;53592;51.402;6.054;2023-04-03T08:14:33;9.98;54.07
65989;HTU21D;53592;51.402;6.054;2023-04-03T08:17:02;10.05;54.76
65989;HTU21D;53592;51.402;6.054;2023-04-03T08:19:30;10.24;54.15
65989;HTU21D;53592;51.402;6.054;2023-04-03T08:21:56;10.38;53.59
65989;HTU21D;53592;51.402;6.054;2023-04-03T08:24:24;10.40;52.59
65989;HTU21D;53592;51.402;6.054;2023-04-03T08:26:50;10.40;53.47
65989;HTU21D;53592;51.402;6.054;2023-04-03T08:29:16;10.51;51.11
65989;HTU21D;53592;51.402;6.054;2023-04-03T08:31:42;10.41;51.41
65989;HTU21D;53592;51.402;6.054;2023-04-03T08:34:08;10.51;52.01
65989;HTU21D;53592;51.402;6.054;2023-04-03T08:36:33;10.77;51.10
65989;HTU21D;53592;51.402;6.054;2023-04-03T08:39:00;11.01;49.28
65989;HTU21D;53592;51.402;6.054;2023-04-03T08:41:33;10.98;48.33
65989;HTU21D;53592;51.402;6.054;2023-04-03T08:44:21;10.87;49.27
65989;HTU21D;53592;51.402;6.054;2023-04-03T08:49:39;11.02;47.70
65989;HTU21D;53592;51.402;6.054;2023-04-03T08:52:14;11.19;47.86
65989;HTU21D;53592;51.402;6.054;2023-04-03T08:55:02;0.00;47.28
65989;HTU21D;53592;51.402;6.054;2023-04-03T08:57:50;11.63;47.93
65989;HTU21D;53592;51.402;6.054;2023-04-03T09:00:23;11.88;46.70
65989;HTU21D;53592;51.402;6.054;2023-04-03T09:02:52;12.01;46.15
65989;HTU21D;53592;51.402;6.054;2023-04-03T09:05:25;12.16;44.48
65989;HTU21D;53592;51.402;6.054;2023-04-03T09:08:11;12.02;45.55
65989;HTU21D;53592;51.402;6.054;2023-04-03T09:10:40;12.01;41.58
65989;HTU21D;53592;51.402;6.054;2023-04-03T09:13:26;11.76;40.39
65989;HTU21D;53592;51.402;6.054;2023-04-03T09:15:56;11.53;40.36
65989;HTU21D;53592;51.402;6.054;2023-04-03T09:18:43;11.49;38.50
65989;HTU21D;53592;51.402;6.054;2023-04-03T09:24:04;11.56;40.62
65989;HTU21D;53592;51.402;6.054;2023-04-03T09:26:51;11.58;39.77
65989;HTU21D;53592;51.402;6.054;2023-04-03T09:29:23;11.61;40.04
65989;HTU21D;53592;51.402;6.054;2023-04-03T09:31:54;11.77;39.18
65989;HTU21D;53592;51.402;6.054;2023-04-03T09:34:28;11.81;39.32
65989;HTU21D;53592;51.402;6.054;2023-04-03T09:36:58;12.04;38.85
65989;HTU21D;53592;51.402;6.054;2023-04-03T09:39:26;12.16;38.01
65989;HTU21D;53592;51.402;6.054;2023-04-03T09:44:36;11.86;36.60
65989;HTU21D;53592;51.402;6.054;2023-04-03T09:47:21;11.82;38.16
65989;HTU21D;53592;51.402;6.054;2023-04-03T09:49:48;12.10;37.64
65989;HTU21D;53592;51.402;6.054;2023-04-03T09:52:25;12.01;36.68
65989;HTU21D;53592;51.402;6.054;2023-04-03T09:54:51;11.99;37.74
65989;HTU21D;53592;51.402;6.054;2023-04-03T09:57:17;12.14;36.18
65989;HTU21D;53592;51.402;6.054;2023-04-03T09:59:57;11.98;36.21
65989;HTU21D;53592;51.402;6.054;2023-04-03T10:05:00;12.01;34.89
65989;HTU21D;53592;51.402;6.054;2023-04-03T10:07:35;12.06;34.51
65989;HTU21D;53592;51.402;6.054;2023-04-03T10:10:19;12.06;34.94
65989;HTU21D;53592;51.402;6.054;2023-04-03T10:12:46;12.17;35.91
65989;HTU21D;53592;51.402;6.054;2023-04-03T10:15:14;12.46;34.50
65989;HTU21D;53592;51.402;6.054;2023-04-03T10:18:00;12.52;34.39
65989;HTU21D;53592;51.402;6.054;2023-04-03T10:20:44;12.48;34.20
65989;HTU21D;53592;51.402;6.054;2023-04-03T10:23:18;12.57;33.24
65989;HTU21D;53592;51.402;6.054;2023-04-03T10:31:31;12.55;32.73
65989;HTU21D;53592;51.402;6.054;2023-04-03T10:34:02;12.61;31.70
65989;HTU21D;53592;51.402;6.054;2023-04-03T10:52:57;12.61;33.33
65989;HTU21D;53592;51.402;6.054;2023-04-03T10:57:57;12.50;30.51
65989;HTU21D;53592;51.402;6.054;2023-04-03T11:00:36;12.28;29.96
65989;HTU21D;53592;51.402;6.054;2023-04-03T11:03:09;12.14;31.34
65989;HTU21D;53592;51.402;6.054;2023-04-03T11:05:49;12.16;30.83
65989;HTU21D;53592;51.402;6.054;2023-04-03T11:08:29;12.10;31.65
65989;HTU21D;53592;51.402;6.054;2023-04-03T11:11:03;12.27;32.43
65989;HTU21D;53592;51.402;6.054;2023-04-03T11:13:48;12.28;31.73
65989;HTU21D;53592;51.402;6.054;2023-04-03T11:16:24;12.18;32.83
65989;HTU21D;53592;51.402;6.054;2023-04-03T11:21:41;12.49;31.33
65989;HTU21D;53592;51.402;6.054;2023-04-03T11:24:24;12.49;32.03
65989;HTU21D;53592;51.402;6.054;2023-04-03T11:26:54;12.45;32.19
65989;HTU21D;53592;51.402;6.054;2023-04-03T11:29:29;12.42;30.43
65989;HTU21D;53592;51.402;6.054;2023-04-03T11:34:42;12.48;28.69
65989;HTU21D;53592;51.402;6.054;2023-04-03T11:37:21;12.31;29.99
65989;HTU21D;53592;51.402;6.054;2023-04-03T11:39:58;12.42;29.00
65989;HTU21D;53592;51.402;6.054;2023-04-03T11:48:58;12.47;28.83
65989;HTU21D;53592;51.402;6.054;2023-04-03T11:50:54;12.44;29.26
65989;HTU21D;53592;51.402;6.054;2023-04-03T11:53:52;12.38;28.89
65989;HTU21D;53592;51.402;6.054;2023-04-03T11:59:22;12.32;31.74
65989;HTU21D;53592;51.402;6.054;2023-04-03T12:01:57;12.56;31.37
65989;HTU21D;53592;51.402;6.054;2023-04-03T12:04:27;12.61;30.12
65989;HTU21D;53592;51.402;6.054;2023-04-03T12:07:11;12.70;31.36
65989;HTU21D;53592;51.402;6.054;2023-04-03T12:12:36;12.60;31.01
65989;HTU21D;53592;51.402;6.054;2023-04-03T12:15:18;12.59;32.02
65989;HTU21D;53592;51.402;6.054;2023-04-03T12:17:44;12.60;32.00
65989;HTU21D;53592;51.402;6.054;2023-04-03T12:23:23;12.58;32.64
65989;HTU21D;53592;51.402;6.054;2023-04-03T12:25:50;12.78;34.37
65989;HTU21D;53592;51.402;6.054;2023-04-03T12:28:16;12.88;32.52
65989;HTU21D;53592;51.402;6.054;2023-04-03T12:30:43;12.74;33.53
65989;HTU21D;53592;51.402;6.054;2023-04-03T12:33:43;12.72;32.22
65989;HTU21D;53592;51.402;6.054;2023-04-03T12:36:22;12.73;33.25
65989;HTU21D;53592;51.402;6.054;2023-04-03T12:47:25;12.36;34.14
65989;HTU21D;53592;51.402;6.054;2023-04-03T12:49:53;12.31;32.44
65989;HTU21D;53592;51.402;6.054;2023-04-03T12:52:34;12.23;32.63
65989;HTU21D;53592;51.402;6.054;2023-04-03T12:55:03;12.14;34.13
65989;HTU21D;53592;51.402;6.054;2023-04-03T12:57:32;12.13;34.80
65989;HTU21D;53592;51.402;6.054;2023-04-03T12:59:59;12.14;34.96
65989;HTU21D;53592;51.402;6.054;2023-04-03T13:02:31;12.13;35.67
65989;HTU21D;53592;51.402;6.054;2023-04-03T13:04:59;12.33;36.47
65989;HTU21D;53592;51.402;6.054;2023-04-03T13:07:33;12.51;36.08
65989;HTU21D;53592;51.402;6.054;2023-04-03T13:10:20;12.56;35.37
65989;HTU21D;53592;51.402;6.054;2023-04-03T13:12:57;12.61;35.84
65989;HTU21D;53592;51.402;6.054;2023-04-03T13:15:29;12.61;35.07
65989;HTU21D;53592;51.402;6.054;2023-04-03T13:17:56;12.67;36.00
65989;HTU21D;53592;51.402;6.054;2023-04-03T13:20:31;12.69;35.17
65989;HTU21D;53592;51.402;6.054;2023-04-03T13:23:07;12.66;34.52
65989;HTU21D;53592;51.402;6.054;2023-04-03T13:25:40;12.69;35.47
65989;HTU21D;53592;51.402;6.054;2023-04-03T13:28:13;12.58;34.37
65989;HTU21D;53592;51.402;6.054;2023-04-03T13:30:40;12.59;35.85
65989;HTU21D;53592;51.402;6.054;2023-04-03T13:33:21;12.64;36.45
65989;HTU21D;53592;51.402;6.054;2023-04-03T13:36:07;12.67;35.82
65989;HTU21D;53592;51.402;6.054;2023-04-03T13:38:33;12.66;34.82
65989;HTU21D;53592;51.402;6.054;2023-04-03T13:41:26;12.59;34.89
65989;HTU21D;53592;51.402;6.054;2023-04-03T13:43:54;12.46;34.26
65989;HTU21D;53592;51.402;6.054;2023-04-03T13:48:48;12.41;35.55
65989;HTU21D;53592;51.402;6.054;2023-04-03T13:56:38;12.31;36.34
65989;HTU21D;53592;51.402;6.054;2023-04-03T13:59:28;12.30;36.34
65989;HTU21D;53592;51.402;6.054;2023-04-03T14:07:13;12.20;36.49
65989;HTU21D;53592;51.402;6.054;2023-04-03T14:09:40;12.16;35.69
65989;HTU21D;53592;51.402;6.054;2023-04-03T14:12:11;12.08;36.47
65989;HTU21D;53592;51.402;6.054;2023-04-03T14:14:37;12.13;36.50
65989;HTU21D;53592;51.402;6.054;2023-04-03T14:17:15;12.11;36.95
65989;HTU21D;53592;51.402;6.054;2023-04-03T14:19:41;12.19;36.05
65989;HTU21D;53592;51.402;6.054;2023-04-03T14:22:32;12.15;36.18
65989;HTU21D;53592;51.402;6.054;2023-04-03T14:24:58;12.07;37.85
65989;HTU21D;53592;51.402;6.054;2023-04-03T14:27:31;12.08;36.86
65989;HTU21D;53592;51.402;6.054;2023-04-03T14:29:58;12.01;36.15
65989;HTU21D;53592;51.402;6.054;2023-04-03T14:32:25;11.94;37.06
65989;HTU21D;53592;51.402;6.054;2023-04-03T14:34:52;11.97;36.39
65989;HTU21D;53592;51.402;6.054;2023-04-03T14:37:23;11.85;35.69
65989;HTU21D;53592;51.402;6.054;2023-04-03T14:39:52;11.73;35.04
65989;HTU21D;53592;51.402;6.054;2023-04-03T14:42:29;11.56;36.66
65989;HTU21D;53592;51.402;6.054;2023-04-03T14:44:57;11.45;36.74
65989;HTU21D;53592;51.402;6.054;2023-04-03T14:47:26;11.45;37.44
65989;HTU21D;53592;51.402;6.054;2023-04-03T14:49:52;11.39;37.56
65989;HTU21D;53592;51.402;6.054;2023-04-03T14:52:22;11.45;37.89
65989;HTU21D;53592;51.402;6.054;2023-04-03T14:54:48;11.47;37.99
65989;HTU21D;53592;51.402;6.054;2023-04-03T14:57:15;11.49;38.77
65989;HTU21D;53592;51.402;6.054;2023-04-03T14:59:45;11.58;39.46
65989;HTU21D;53592;51.402;6.054;2023-04-03T15:02:30;11.63;38.77
65989;HTU21D;53592;51.402;6.054;2023-04-03T15:04:57;11.58;38.73
65989;HTU21D;53592;51.402;6.054;2023-04-03T15:07:26;11.54;38.65
65989;HTU21D;53592;51.402;6.054;2023-04-03T15:09:52;11.51;38.29
65989;HTU21D;53592;51.402;6.054;2023-04-03T15:12:18;11.53;38.79
65989;HTU21D;53592;51.402;6.054;2023-04-03T15:14:44;11.45;38.03
65989;HTU21D;53592;51.402;6.054;2023-04-03T15:17:22;11.45;38.72
65989;HTU21D;53592;51.402;6.054;2023-04-03T15:19:48;11.44;38.15
65989;HTU21D;53592;51.402;6.054;2023-04-03T15:22:19;11.39;39.05
65989;HTU21D;53592;51.402;6.054;2023-04-03T15:24:45;11.37;39.09
65989;HTU21D;53592;51.402;6.054;2023-04-03T15:27:12;11.34;38.59
65989;HTU21D;53592;51.402;6.054;2023-04-03T15:29:40;11.24;39.74
65989;HTU21D;53592;51.402;6.054;2023-04-03T15:32:06;11.22;39.43
65989;HTU21D;53592;51.402;6.054;2023-04-03T15:34:32;11.19;39.49
65989;HTU21D;53592;51.402;6.054;2023-04-03T15:36:58;11.04;38.85
65989;HTU21D;53592;51.402;6.054;2023-04-03T15:39:27;10.92;38.10
65989;HTU21D;53592;51.402;6.054;2023-04-03T15:41:54;10.80;39.22
65989;HTU21D;53592;51.402;6.054;2023-04-03T15:44:21;10.74;39.23
65989;HTU21D;53592;51.402;6.054;2023-04-03T15:46:48;10.81;38.79
65989;HTU21D;53592;51.402;6.054;2023-04-03T15:49:16;10.73;38.91
65989;HTU21D;53592;51.402;6.054;2023-04-03T15:51:41;10.65;41.05
65989;HTU21D;53592;51.402;6.054;2023-04-03T15:54:07;10.70;41.00
65989;HTU21D;53592;51.402;6.054;2023-04-03T15:56:32;10.75;40.45
65989;HTU21D;53592;51.402;6.054;2023-04-03T15:58:58;10.73;40.84
65989;HTU21D;53592;51.402;6.054;2023-04-03T16:01:23;10.78;40.07
65989;HTU21D;53592;51.402;6.054;2023-04-03T16:03:49;10.77;40.85
65989;HTU21D;53592;51.402;6.054;2023-04-03T16:06:16;10.64;40.52
65989;HTU21D;53592;51.402;6.054;2023-04-03T16:08:44;10.64;40.91
65989;HTU21D;53592;51.402;6.054;2023-04-03T16:11:09;10.60;39.72
65989;HTU21D;53592;51.402;6.054;2023-04-03T16:13:35;10.50;40.00
65989;HTU21D;53592;51.402;6.054;2023-04-03T16:16:01;10.38;40.43
65989;HTU21D;53592;51.402;6.054;2023-04-03T16:18:29;10.38;41.05
65989;HTU21D;53592;51.402;6.054;2023-04-03T16:20:55;10.29;40.51
65989;HTU21D;53592;51.402;6.054;2023-04-03T16:23:21;10.26;40.95
65989;HTU21D;53592;51.402;6.054;2023-04-03T16:25:47;10.23;40.60
65989;HTU21D;53592;51.402;6.054;2023-04-03T16:28:14;10.16;40.44
65989;HTU21D;53592;51.402;6.054;2023-04-03T16:30:41;10.09;41.07
65989;HTU21D;53592;51.402;6.054;2023-04-03T16:33:08;10.07;42.35
65989;HTU21D;53592;51.402;6.054;2023-04-03T16:35:34;10.04;41.49
65989;HTU21D;53592;51.402;6.054;2023-04-03T16:38:00;10.03;41.46
65989;HTU21D;53592;51.402;6.054;2023-04-03T16:40:26;9.97;42.64
65989;HTU21D;53592;51.402;6.054;2023-04-03T16:42:51;9.96;41.77
65989;HTU21D;53592;51.402;6.054;2023-04-03T16:45:17;9.92;41.49
65989;HTU21D;53592;51.402;6.054;2023-04-03T16:47:43;9.92;40.67
65989;HTU21D;53592;51.402;6.054;2023-04-03T16:50:09;9.86;41.37
65989;HTU21D;53592;51.402;6.054;2023-04-03T16:52:34;9.76;41.85
65989;HTU21D;53592;51.402;6.054;2023-04-03T16:55:00;9.72;42.78
65989;HTU21D;53592;51.402;6.054;2023-04-03T16:57:26;9.75;42.16
65989;HTU21D;53592;51.402;6.054;2023-04-03T16:59:52;9.65;42.03
65989;HTU21D;53592;51.402;6.054;2023-04-03T17:02:20;9.59;42.69
65989;HTU21D;53592;51.402;6.054;2023-04-03T17:04:46;9.54;43.19
65989;HTU21D;53592;51.402;6.054;2023-04-03T17:07:11;9.45;43.17
65989;HTU21D;53592;51.402;6.054;2023-04-03T17:09:37;9.47;43.04